Time;durP1;ratioP1;P1;durP2;ratioP2;P2;SDS_P1;SDS_P2;PMS_P1;PMS_P2;Temp;Humidity;BMP_temperature;BMP_pressure;BME280_temperature;BME280_humidity;BME280_pressure;Samples;Min_cycle;Max_cycle;Signal;HPM_P1;HPM_P2
2022/06/16 00:00:47;;;;;;;9.15;3.40;;;;;;;20.28;72.81;101178.66;5135576;27;20435;-78
2022/06/16 00:03:13;;;;;;;8.98;2.55;;;;;;;20.25;73.11;101178.13;5135944;27;20031;-78
2022/06/16 00:05:42;;;;;;;7.18;3.35;;;;;;;20.26;73.07;101185.34;5135997;27;20478;-78
2022/06/16 00:08:10;;;;;;;9.60;3.63;;;;;;;20.24;73.34;101179.19;5135993;27;20019;-79
2022/06/16 00:10:37;;;;;;;7.43;3.33;;;;;;;20.22;73.38;101190.25;5117184;27;20096;-79
2022/06/16 00:13:04;;;;;;;12.02;2.92;;;;;;;20.24;73.34;101180.03;5135768;27;20038;-78
2022/06/16 00:15:30;;;;;;;9.93;3.38;;;;;;;20.21;73.34;101177.66;5135605;27;20042;-78
2022/06/16 00:17:58;;;;;;;7.47;3.47;;;;;;;20.20;73.39;101180.53;5135939;27;20031;-78
2022/06/16 00:20:24;;;;;;;13.23;3.45;;;;;;;20.22;73.35;101184.78;5135694;27;20071;-79
2022/06/16 00:22:50;;;;;;;10.65;3.20;;;;;;;20.18;73.54;101174.41;5135786;27;20031;-79
2022/06/16 00:25:15;;;;;;;7.05;2.78;;;;;;;20.19;73.00;101176.94;5117562;27;20038;-79
2022/06/16 00:27:42;;;;;;;15.20;3.90;;;;;;;20.13;72.65;101169.44;5135816;27;20030;-79
2022/06/16 00:30:10;;;;;;;17.85;4.18;;;;;;;20.11;72.35;101174.25;5135658;27;20034;-79
2022/06/16 00:32:39;;;;;;;10.63;3.15;;;;;;;20.06;72.17;101173.88;5135186;27;20049;-78
2022/06/16 00:35:05;;;;;;;9.93;3.90;;;;;;;20.05;72.02;101166.75;5135596;27;20027;-78
2022/06/16 00:37:30;;;;;;;13.65;3.25;;;;;;;20.01;71.86;101160.75;5134705;27;20054;-78
2022/06/16 00:39:56;;;;;;;31.98;5.63;;;;;;;19.99;71.89;101159.25;5135401;27;20071;-79
2022/06/16 00:42:24;;;;;;;7.03;3.15;;;;;;;19.96;71.90;101156.84;5135151;27;20469;-79
2022/06/16 00:44:51;;;;;;;10.18;3.65;;;;;;;19.94;71.83;101158.88;5135001;27;20058;-78
2022/06/16 00:47:21;;;;;;;13.55;3.90;;;;;;;19.89;71.99;101158.56;5134964;27;20015;-78
2022/06/16 00:49:50;;;;;;;5.60;3.00;;;;;;;19.87;72.05;101155.16;5130473;27;20088;-78
2022/06/16 00:52:19;;;;;;;13.95;4.50;;;;;;;19.83;72.05;101151.91;5135294;27;20027;-78
2022/06/16 00:55:01;;;;;;;13.50;4.50;;;;;;;19.84;72.08;101152.78;5135201;27;20033;-77
2022/06/16 00:57:33;;;;;;;4.82;3.33;;;;;;;19.82;72.39;101149.34;5115815;27;20023;-79
2022/06/16 01:00:00;;;;;;;10.43;3.90;;;;;;;19.81;72.33;101145.78;5116528;27;20110;-79
2022/06/16 01:02:28;;;;;;;20.73;4.05;;;;;;;19.78;72.49;101142.53;5135036;27;20027;-79
2022/06/16 01:04:54;;;;;;;7.47;3.80;;;;;;;19.78;72.52;101148.84;5135184;27;20026;-79
2022/06/16 01:07:36;;;;;;;14.10;5.13;;;;;;;19.80;72.97;101148.66;5134950;27;20083;-79
2022/06/16 01:10:04;;;;;;;10.70;3.05;;;;;;;19.81;73.22;101153.13;5134976;27;20476;-79
2022/06/16 01:16:18;;;;;;;9.93;3.35;;;;;;;19.80;74.14;101145.94;5134724;27;20084;-78
2022/06/16 01:18:48;;;;;;;9.85;3.80;;;;;;;19.80;74.23;101145.94;5134335;27;20033;-79
2022/06/16 01:21:18;;;;;;;5.20;3.13;;;;;;;19.81;74.38;101153.13;5134564;27;20031;-78
2022/06/16 01:24:20;;;;;;;8.80;3.15;;;;;;;19.77;74.25;101141.69;5134512;27;20029;-78
2022/06/16 01:27:30;;;;;;;13.63;3.83;;;;;;;19.83;74.45;101148.31;5134302;27;20069;-78
2022/06/16 01:30:05;;;;;;;13.18;3.67;;;;;;;19.80;74.65;101141.34;5102391;27;20035;-79
2022/06/16 01:32:37;;;;;;;9.20;3.15;;;;;;;19.81;74.86;101143.06;5115964;27;20035;-79
2022/06/16 01:35:09;;;;;;;;;;;;;;;19.82;74.64;101149.34;5134639;27;20411;-78
2022/06/16 01:37:56;;;;;;;7.95;3.38;;;;;;;19.78;74.53;101142.53;5115736;27;19991;-79
2022/06/16 01:40:36;;;;;;;10.02;3.22;;;;;;;19.79;74.27;101144.22;5115933;27;20027;-79
2022/06/16 01:43:25;;;;;;;7.40;3.53;;;;;;;19.76;74.13;101145.44;5134293;27;20395;-79
2022/06/16 01:46:16;;;;;;;12.05;3.25;;;;;;;19.73;73.82;101147.63;5134017;27;20468;-77
2022/06/16 01:48:47;;;;;;;10.20;2.88;;;;;;;19.63;73.76;101144.25;5115604;27;20023;-78
2022/06/16 01:51:23;;;;;;;11.05;3.72;;;;;;;19.53;73.76;101148.00;5134061;27;20023;-79
2022/06/16 01:54:15;;;;;;;9.02;3.72;;;;;;;19.40;74.06;101154.97;5134397;27;20019;-79
2022/06/16 01:56:40;;;;;;;;;;;;;;;19.47;73.70;101156.00;5134488;27;20026;-79
2022/06/16 01:59:15;;;;;;;14.67;3.73;;;;;;;19.47;73.82;101148.69;5133983;27;19911;-78
2022/06/16 02:01:46;;;;;;;4.15;2.50;;;;;;;19.54;73.88;101162.47;5133788;27;20749;-77
2022/06/16 02:04:28;;;;;;;23.02;4.00;;;;;;;19.57;73.97;101161.31;5133705;27;20031;-78
2022/06/16 02:06:55;;;;;;;;;;;;;;;19.52;73.98;101157.22;5133851;27;20034;-79
2022/06/16 02:09:28;;;;;;;12.02;4.20;;;;;;;19.49;74.33;101149.34;5132895;27;19918;-79
2022/06/16 02:11:57;;;;;;;24.23;5.10;;;;;;;19.51;75.00;101158.22;5133580;27;20075;-78
2022/06/16 02:14:34;;;;;;;13.30;5.43;;;;;;;19.51;75.57;101151.91;5133320;27;20027;-79
2022/06/16 02:17:01;;;;;;;11.93;5.28;;;;;;;19.57;75.58;101159.41;5133265;27;20031;-79
2022/06/16 02:19:27;;;;;;;11.93;4.82;;;;;;;19.55;75.57;101165.06;5133262;27;20023;-79
2022/06/16 02:21:53;;;;;;;6.75;4.53;;;;;;;19.45;75.36;101156.16;5133787;28;20023;-79
2022/06/16 02:24:22;;;;;;;10.38;4.63;;;;;;;19.44;75.76;101168.13;5133532;28;20465;-80
2022/06/16 02:26:49;;;;;;;19.85;5.63;;;;;;;19.37;75.92;101161.59;5133338;28;20059;-79
2022/06/16 02:29:37;;;;;;;24.08;7.10;;;;;;;19.34;76.38;101169.25;5133703;28;20019;-79
2022/06/16 02:32:32;;;;;;;12.75;5.55;;;;;;;19.32;76.71;101171.31;5133849;28;20107;-79
2022/06/16 02:35:33;;;;;;;12.20;5.15;;;;;;;19.28;76.89;101175.38;5133637;28;20016;-79
2022/06/16 02:38:02;;;;;;;13.13;5.70;;;;;;;19.24;76.81;101179.47;5114970;28;20034;-79
2022/06/16 02:40:58;;;;;;;13.93;5.43;;;;;;;19.20;76.70;101176.25;5114930;28;20026;-79
2022/06/16 02:43:41;;;;;;;11.27;4.10;;;;;;;19.16;76.89;101176.72;5133564;28;20023;-79
2022/06/16 02:46:40;;;;;;;12.50;4.68;;;;;;;19.13;76.99;101169.72;5115566;28;20508;-78
2022/06/16 02:49:19;;;;;;;14.82;4.30;;;;;;;19.11;76.87;101166.28;5133625;28;20019;-79
2022/06/16 02:51:54;;;;;;;13.77;5.68;;;;;;;19.17;76.75;101171.13;5114912;28;20104;-79
2022/06/16 02:54:43;;;;;;;12.00;4.22;;;;;;;19.22;76.15;101176.06;5114761;28;20194;-79
2022/06/16 02:57:37;;;;;;;11.70;4.30;;;;;;;19.19;75.90;101168.22;5133304;28;20511;-79
2022/06/16 03:00:08;;;;;;;8.68;4.43;;;;;;;19.22;75.85;101167.88;5125234;28;20108;-79
2022/06/16 03:02:37;;;;;;;15.23;5.20;;;;;;;19.21;76.05;101171.59;5121003;28;20496;-79
2022/06/16 03:05:05;;;;;;;15.55;4.47;;;;;;;19.19;76.16;101174.53;5112299;28;20039;-79
2022/06/16 03:07:34;;;;;;;16.77;4.63;;;;;;;19.18;76.32;101178.25;5112089;28;20020;-79
2022/06/16 03:10:03;;;;;;;12.82;3.92;;;;;;;19.19;76.22;101174.53;5109511;28;20027;-79
2022/06/16 03:12:29;;;;;;;26.67;4.95;;;;;;;19.13;75.80;101153.38;5093467;28;20446;-79
2022/06/16 03:14:54;;;;;;;15.52;4.55;;;;;;;19.16;75.52;101163.94;5112515;28;20024;-79
2022/06/16 03:17:20;;;;;;;16.33;4.53;;;;;;;19.20;75.75;101178.09;5112385;28;20118;-79
2022/06/16 03:19:45;;;;;;;10.77;4.88;;;;;;;19.22;75.65;101173.31;5114305;28;20385;-78
2022/06/16 03:22:11;;;;;;;11.60;4.75;;;;;;;19.15;75.62;101164.97;5116088;28;20485;-78
2022/06/16 03:24:38;;;;;;;9.32;4.50;;;;;;;19.11;76.15;101160.84;5116156;28;20016;-78
2022/06/16 03:27:04;;;;;;;12.00;4.97;;;;;;;19.17;76.59;101167.53;5116552;28;20098;-79
2022/06/16 03:29:30;;;;;;;19.70;5.85;;;;;;;19.11;76.44;101165.47;5116354;28;20057;-81
2022/06/16 03:31:56;;;;;;;23.67;4.95;;;;;;;19.13;76.23;101164.28;5115931;28;20015;-80
2022/06/16 03:34:22;;;;;;;11.85;5.43;;;;;;;19.14;76.30;101173.31;5098223;28;20045;-79
2022/06/16 03:36:48;;;;;;;14.25;5.55;;;;;;;19.12;75.61;101165.28;5116151;28;20043;-78
2022/06/16 03:39:14;;;;;;;20.20;4.60;;;;;;;19.15;75.22;101156.78;5097600;28;20028;-79
2022/06/16 03:41:39;;;;;;;28.35;6.55;;;;;;;19.16;74.49;101166.66;5116329;28;20813;-79
2022/06/16 03:44:05;;;;;;;21.02;4.75;;;;;;;19.18;74.04;101172.81;5116194;28;20024;-78
2022/06/16 03:46:30;;;;;;;26.08;4.72;;;;;;;19.15;73.88;101166.81;5116027;28;20035;-79
2022/06/16 03:48:56;;;;;;;11.75;5.30;;;;;;;19.11;73.48;101160.03;5115770;28;20053;-78
2022/06/16 03:51:21;;;;;;;24.75;4.38;;;;;;;19.12;73.87;101162.56;5115771;28;20020;-77
2022/06/16 03:53:47;;;;;;;22.23;5.28;;;;;;;19.19;73.97;101158.16;5115585;28;20020;-78
2022/06/16 03:56:13;;;;;;;19.25;5.55;;;;;;;19.29;73.75;101169.78;5115176;28;20023;-78
2022/06/16 03:58:40;;;;;;;26.92;5.88;;;;;;;19.36;73.66;101175.38;5115663;28;20470;-77
2022/06/16 04:01:05;;;;;;;28.05;5.93;;;;;;;19.42;73.42;101172.88;5115736;28;20102;-78
2022/06/16 04:06:16;;;;;;;17.38;6.38;;;;;;;19.49;74.81;101175.78;5115493;28;20037;-77
2022/06/16 04:08:41;;;;;;;43.88;10.95;;;;;;;19.57;75.35;101174.94;5115572;28;20016;-76
2022/06/16 04:13:52;;;;;;;33.55;10.13;;;;;;;19.69;75.60;101173.59;5115136;28;20030;-78
2022/06/16 04:16:18;;;;;;;37.55;10.00;;;;;;;19.68;75.20;101171.88;5115309;28;20106;-81
2022/06/16 04:18:44;;;;;;;30.92;12.32;;;;;;;19.65;74.77;101174.94;5115731;28;20446;-81
2022/06/16 04:21:12;;;;;;;32.90;12.50;;;;;;;19.61;75.01;101176.31;5115402;28;20509;-80
2022/06/16 04:23:39;;;;;;;21.95;11.80;;;;;;;19.62;75.17;101175.28;5115296;28;20059;-80
2022/06/16 04:26:05;;;;;;;59.50;16.38;;;;;;;19.68;75.54;101182.78;5114621;28;20034;-79
2022/06/16 04:28:31;;;;;;;55.35;13.18;;;;;;;19.70;75.25;101178.00;5114944;28;20097;-79
2022/06/16 04:30:57;;;;;;;45.92;13.55;;;;;;;19.83;74.97;101183.81;5113444;28;20477;-79
2022/06/16 04:33:23;;;;;;;38.70;12.98;;;;;;;19.81;75.00;101178.53;5114184;28;20484;-78
2022/06/16 04:35:49;;;;;;;40.10;12.70;;;;;;;19.79;74.20;101187.91;5114145;28;20084;-79
2022/06/16 04:38:14;;;;;;;34.53;12.98;;;;;;;19.84;73.88;101183.66;5114575;28;20087;-78
2022/06/16 04:40:40;;;;;;;45.22;12.98;;;;;;;19.92;73.55;101172.72;5114873;28;20039;-78
2022/06/16 04:43:06;;;;;;;34.47;12.98;;;;;;;20.01;73.34;101176.28;5114685;28;20046;-78
2022/06/16 04:45:31;;;;;;;31.45;11.50;;;;;;;20.04;72.58;101156.84;5096457;28;20028;-79
2022/06/16 04:47:57;;;;;;;41.38;11.00;;;;;;;20.01;72.05;101158.03;5115201;28;20019;-80
2022/06/16 04:50:22;;;;;;;31.95;9.93;;;;;;;20.12;71.29;101181.38;5114778;28;20024;-80
2022/06/16 04:52:48;;;;;;;40.97;10.65;;;;;;;20.22;70.51;101173.88;5095677;28;20028;-75
2022/06/16 04:55:15;;;;;;;54.97;12.93;;;;;;;20.40;70.00;101166.34;5113719;28;20401;-78
2022/06/16 04:57:41;;;;;;;53.13;10.75;;;;;;;20.50;69.76;101161.53;5113572;28;20111;-79
2022/06/16 05:00:08;;;;;;;30.88;8.77;;;;;;;20.66;69.24;101166.09;5113587;28;20028;-79
2022/06/16 05:02:34;;;;;;;47.63;10.57;;;;;;;20.63;67.65;101161.84;5095224;28;20526;-79
2022/06/16 05:05:00;;;;;;;46.80;10.02;;;;;;;20.71;66.49;101168.28;5113648;28;20039;-79
2022/06/16 05:07:25;;;;;;;48.58;9.30;;;;;;;20.82;66.78;101160.56;5113456;28;20028;-79
2022/06/16 05:09:51;;;;;;;50.10;10.43;;;;;;;20.95;66.55;101157.22;5113066;28;20023;-77
2022/06/16 05:12:16;;;;;;;40.03;11.32;;;;;;;21.06;66.26;101156.84;5113080;28;20505;-77
2022/06/16 05:14:42;;;;;;;28.38;10.57;;;;;;;21.10;66.37;101158.19;5113122;28;20484;-78
2022/06/16 05:17:07;;;;;;;32.20;10.13;;;;;;;21.19;66.22;101142.59;5113364;28;20397;-77
2022/06/16 05:19:33;;;;;;;45.92;10.57;;;;;;;21.33;66.24;101159.09;5117747;28;20107;-78
2022/06/16 05:22:00;;;;;;;51.63;12.68;;;;;;;21.45;65.83;101146.69;5116436;28;20024;-78
2022/06/16 05:24:27;;;;;;;49.67;12.05;;;;;;;21.55;65.83;101152.78;5094634;28;20420;-77
2022/06/16 05:26:53;;;;;;;57.80;15.90;;;;;;;21.63;65.30;101155.44;5113430;28;20030;-77
2022/06/16 05:29:19;;;;;;;48.63;14.35;;;;;;;21.70;65.47;101145.47;5116828;28;20032;-77
2022/06/16 05:31:46;;;;;;;48.80;15.38;;;;;;;21.84;65.12;101142.94;5125351;28;20043;-77
2022/06/16 05:34:11;;;;;;;40.22;14.38;;;;;;;21.99;64.42;101149.31;5128258;28;20031;-77
2022/06/16 05:36:37;;;;;;;42.45;13.75;;;;;;;22.05;63.99;101154.03;5129796;28;20118;-77
2022/06/16 05:39:03;;;;;;;50.78;15.43;;;;;;;22.10;63.34;101157.09;5100564;28;20488;-77
2022/06/16 05:41:29;;;;;;;46.47;13.25;;;;;;;22.17;62.61;101158.88;5095084;28;20050;-77
2022/06/16 05:43:54;;;;;;;39.88;16.13;;;;;;;22.32;62.42;101160.81;5112361;28;20461;-79
2022/06/16 05:46:22;;;;;;;31.17;15.00;;;;;;;22.34;62.35;101154.09;5112954;28;20027;-76
2022/06/16 05:48:47;;;;;;;55.25;14.10;;;;;;;22.40;61.41;101153.34;5112976;28;20015;-77
2022/06/16 05:51:15;;;;;;;36.60;14.98;;;;;;;22.51;61.64;101161.09;5112868;28;20446;-77
2022/06/16 05:53:42;;;;;;;54.60;15.13;;;;;;;22.59;61.58;101155.53;5112702;28;20103;-77
2022/06/16 05:56:08;;;;;;;41.22;12.50;;;;;;;22.67;60.65;101158.19;5112577;28;20020;-78
2022/06/16 05:58:34;;;;;;;48.60;14.45;;;;;;;22.81;60.18;101161.97;5112933;28;20023;-76
2022/06/16 06:00:59;;;;;;;47.38;13.77;;;;;;;22.89;59.33;101164.59;5112621;28;20511;-78
2022/06/16 06:03:25;;;;;;;38.72;14.05;;;;;;;22.99;59.98;101158.81;5112674;28;20035;-77
2022/06/16 06:05:50;;;;;;;31.58;12.80;;;;;;;23.07;58.65;101172.41;5112577;28;20022;-77
2022/06/16 06:16:37;;;;;;;19.00;7.05;;;;;;;23.37;55.39;101160.28;5112297;28;20116;-77
2022/06/16 06:19:23;;;;;;;38.95;10.48;;;;;;;23.42;52.96;101166.09;5112628;28;20022;-77
2022/06/16 06:22:06;;;;;;;30.45;9.55;;;;;;;23.43;53.14;101162.28;5111927;28;20477;-78
2022/06/16 06:24:36;;;;;;;31.55;9.65;;;;;;;23.55;51.93;101170.84;5112442;28;20459;-77
2022/06/16 06:27:35;;;;;;;37.67;7.72;;;;;;;23.55;50.18;101155.22;5112062;28;20496;-78
2022/06/16 06:30:04;;;;;;;20.65;6.25;;;;;;;23.54;44.26;101164.53;5112166;28;20089;-79
2022/06/16 06:32:30;;;;;;;13.25;4.07;;;;;;;23.62;43.54;101167.13;5112103;28;20120;-78
2022/06/16 06:34:56;;;;;;;10.52;4.20;;;;;;;23.66;40.97;101153.88;5112562;28;20024;-78
2022/06/16 06:37:24;;;;;;;8.82;2.38;;;;;;;23.66;34.51;101151.13;5094052;28;20096;-77
2022/06/16 06:39:50;;;;;;;16.95;3.97;;;;;;;23.77;37.26;101159.66;5111919;28;20032;-77
2022/06/16 06:42:16;;;;;;;37.55;6.53;;;;;;;23.81;39.48;101154.63;5111911;28;20023;-77
2022/06/16 06:44:42;;;;;;;26.85;4.60;;;;;;;23.70;40.74;101147.75;5111875;28;20038;-77
2022/06/16 06:47:10;;;;;;;21.52;4.13;;;;;;;23.88;41.20;101155.56;5111788;28;20054;-77
2022/06/16 06:49:36;;;;;;;20.98;4.80;;;;;;;23.95;40.67;101150.94;5111909;28;20012;-78
2022/06/16 06:52:01;;;;;;;20.13;4.18;;;;;;;24.01;39.92;101149.28;5112168;28;20020;-76
2022/06/16 06:54:26;;;;;;;19.67;4.63;;;;;;;24.03;40.29;101141.72;5112773;28;20020;-77
2022/06/16 06:56:52;;;;;;;25.67;8.30;;;;;;;24.17;41.05;101149.88;5115653;28;20024;-76
2022/06/16 06:59:19;;;;;;;21.55;5.60;;;;;;;24.25;39.97;101151.59;5115752;28;20497;-77
2022/06/16 07:01:49;;;;;;;13.38;4.93;;;;;;;24.23;39.71;101149.06;5116130;28;20095;-76
2022/06/16 07:04:16;;;;;;;17.25;5.22;;;;;;;24.40;40.22;101154.28;5097583;28;20118;-76
2022/06/16 07:06:42;;;;;;;16.25;5.43;;;;;;;24.52;39.54;101158.16;5115947;28;20022;-78
2022/06/16 07:09:10;;;;;;;16.27;5.45;;;;;;;24.61;39.53;101157.78;5115676;28;20377;-77
2022/06/16 07:11:36;;;;;;;12.80;3.80;;;;;;;24.60;38.33;101145.06;5115910;28;20045;-77
2022/06/16 07:14:01;;;;;;;18.90;3.70;;;;;;;24.68;37.64;101153.16;5115282;28;20038;-77
2022/06/16 07:16:27;;;;;;;12.75;4.53;;;;;;;24.71;37.94;101149.97;5115373;28;20023;-77
2022/06/16 07:18:52;;;;;;;19.90;3.90;;;;;;;24.84;37.99;101152.00;5097022;28;20016;-77
2022/06/16 07:21:18;;;;;;;17.40;3.53;;;;;;;24.70;36.15;101153.81;5097156;28;20505;-78
2022/06/16 07:23:43;;;;;;;19.45;4.03;;;;;;;24.79;36.44;101146.22;5115523;28;20473;-77
2022/06/16 07:26:10;;;;;;;15.27;4.32;;;;;;;24.92;36.59;101156.47;5115592;28;20020;-78
2022/06/16 07:28:35;;;;;;;8.55;3.65;;;;;;;24.92;35.56;101159.22;5115769;28;20030;-77
2022/06/16 07:31:01;;;;;;;13.45;4.07;;;;;;;24.92;35.14;101161.97;5115097;28;20098;-78
2022/06/16 07:33:26;;;;;;;11.32;2.58;;;;;;;24.92;35.03;101158.16;5115235;28;20019;-75
2022/06/16 07:35:53;;;;;;;6.47;2.88;;;;;;;25.00;34.85;101165.41;5115443;28;20447;-76
2022/06/16 07:38:20;;;;;;;13.32;3.83;;;;;;;25.11;35.84;101163.94;5096941;28;20016;-77
2022/06/16 07:40:45;;;;;;;23.33;4.65;;;;;;;25.28;35.18;101165.28;5115543;28;20051;-77
2022/06/16 07:43:11;;;;;;;11.75;3.92;;;;;;;25.25;33.72;101172.06;5114997;28;20059;-76
2022/06/16 07:45:38;;;;;;;7.38;2.25;;;;;;;25.11;34.06;101166.69;5115284;28;20031;-76
2022/06/16 07:48:05;;;;;;;16.80;3.22;;;;;;;25.28;34.42;101168.03;5096515;28;20020;-76
2022/06/16 07:50:33;;;;;;;7.97;2.80;;;;;;;25.28;33.93;101168.03;5114449;28;20035;-77
2022/06/16 07:52:59;;;;;;;12.23;3.20;;;;;;;25.40;33.92;101166.38;5096581;28;20034;-77
2022/06/16 07:55:25;;;;;;;16.17;2.42;;;;;;;25.46;32.62;101179.31;5096833;28;20023;-77
2022/06/16 07:57:51;;;;;;;7.53;2.80;;;;;;;25.47;33.31;101181.03;5114429;28;20032;-76
2022/06/16 08:00:24;;;;;;;12.60;3.13;;;;;;;25.41;34.15;101176.34;5114942;28;20112;-77
2022/06/16 08:02:50;;;;;;;8.43;3.10;;;;;;;25.51;33.22;101174.03;5115822;28;20062;-76
2022/06/16 08:05:17;;;;;;;11.00;2.35;;;;;;;25.61;33.46;101182.75;5114566;28;20035;-76
2022/06/16 08:07:43;;;;;;;15.88;2.83;;;;;;;25.63;32.96;101182.53;5114502;28;20026;-77
2022/06/16 08:10:17;;;;;;;9.13;2.78;;;;;;;25.70;33.10;101181.50;5114682;28;20019;-76
2022/06/16 08:12:42;;;;;;;11.55;2.55;;;;;;;25.79;33.10;101182.16;5114120;28;20043;-76
2022/06/16 08:15:10;;;;;;;12.05;2.70;;;;;;;25.87;33.07;101181.97;5095722;28;20073;-76
2022/06/16 08:17:40;;;;;;;6.32;3.28;;;;;;;25.95;33.22;101179.84;5114927;28;20020;-76
2022/06/16 08:20:06;;;;;;;10.13;3.05;;;;;;;26.08;33.68;101190.03;5096223;28;20023;-77
2022/06/16 08:22:32;;;;;;;8.82;2.33;;;;;;;26.13;33.41;101184.72;5114617;28;20019;-76
2022/06/16 08:24:57;;;;;;;9.68;2.72;;;;;;;26.05;32.78;101190.44;5114009;28;20015;-76
2022/06/16 08:27:28;;;;;;;35.17;3.60;;;;;;;26.13;33.12;101186.59;5113808;28;20495;-76
2022/06/16 08:29:54;;;;;;;10.35;2.40;;;;;;;26.12;32.86;101190.41;5114060;28;20023;-76
2022/06/16 08:32:21;;;;;;;7.40;2.38;;;;;;;26.06;32.69;101194.88;5114018;28;20033;-76
2022/06/16 08:34:48;;;;;;;8.70;2.63;;;;;;;26.03;32.08;101183.41;5095274;28;20084;-76
2022/06/16 08:37:14;;;;;;;15.27;3.22;;;;;;;25.96;33.15;101189.78;5113655;28;20048;-76
2022/06/16 08:39:39;;;;;;;15.95;3.30;;;;;;;25.85;33.53;101190.41;5113754;28;20090;-76
2022/06/16 08:42:43;;;;;;;6.78;2.97;;;;;;;26.05;35.26;101195.97;5114048;28;20027;-77
2022/06/16 08:45:34;;;;;;;9.48;2.25;;;;;;;26.17;34.52;101190.69;5088111;27;20122;-77
2022/06/16 08:48:27;;;;;;;10.80;2.75;;;;;;;26.26;34.92;101183.88;5095884;28;20019;-77
2022/06/16 08:51:11;;;;;;;18.88;3.92;;;;;;;26.26;38.32;101189.41;5114130;28;20098;-77
2022/06/16 08:53:59;;;;;;;14.27;3.50;;;;;;;26.21;38.46;101194.69;5113593;28;20024;-77
2022/06/16 08:56:50;;;;;;;15.35;4.10;;;;;;;26.29;37.80;101194.50;5066951;28;20039;-77
2022/06/16 08:59:34;;;;;;;16.38;3.03;;;;;;;26.22;37.65;101196.41;5113829;28;20500;-76
2022/06/16 09:02:06;;;;;;;10.07;3.60;;;;;;;26.24;38.70;101188.75;5113783;28;20503;-78
2022/06/16 09:04:40;;;;;;;6.28;2.58;;;;;;;26.33;39.04;101188.31;5113384;28;20023;-77
2022/06/16 09:07:21;;;;;;;5.68;2.83;;;;;;;26.43;35.48;101201.69;5113669;28;20051;-77
2022/06/16 09:10:16;;;;;;;14.10;2.55;;;;;;;26.40;37.31;101193.81;5112932;28;20043;-78
2022/06/16 09:13:19;;;;;;;13.65;3.85;;;;;;;26.38;33.67;101187.69;5112749;28;20026;-79
2022/06/16 09:16:13;;;;;;;10.45;2.20;;;;;;;26.38;33.52;101184.94;5113311;28;20378;-77
2022/06/16 09:18:54;;;;;;;8.02;1.90;;;;;;;26.38;32.10;101188.53;5109785;28;20537;-76
2022/06/16 09:21:35;;;;;;;13.55;2.00;;;;;;;26.30;30.69;101193.41;5113217;28;20481;-78
2022/06/16 09:24:42;;;;;;;9.27;1.92;;;;;;;26.36;31.67;101193.41;5113593;28;20032;-75
2022/06/16 09:27:14;;;;;;;4.20;2.10;;;;;;;26.25;32.66;101187.69;5113519;28;20453;-77
2022/06/16 09:29:51;;;;;;;6.53;2.20;;;;;;;26.27;33.19;101193.84;5113375;28;20078;-77
2022/06/16 09:32:36;;;;;;;4.85;1.73;;;;;;;26.33;33.57;101192.97;5113505;28;20527;-77
2022/06/16 09:35:07;;;;;;;15.15;2.67;;;;;;;26.12;36.89;101196.78;5113500;28;20045;-77
2022/06/16 09:37:48;;;;;;;10.80;2.53;;;;;;;26.27;36.99;101189.16;5112473;28;20505;-77
2022/06/16 09:40:20;;;;;;;11.90;1.92;;;;;;;26.42;35.81;101188.97;5112543;28;20096;-76
2022/06/16 09:43:36;;;;;;;18.27;3.22;;;;;;;26.45;36.79;101192.13;5112409;28;20035;-79
2022/06/16 09:46:15;;;;;;;16.08;3.53;;;;;;;26.48;36.04;101180.66;5078327;28;20032;-76
2022/06/16 09:48:56;;;;;;;12.48;1.95;;;;;;;26.64;36.08;101189.53;5094589;28;20024;-76
2022/06/16 09:51:25;;;;;;;8.93;2.58;;;;;;;26.50;38.46;101188.72;5112409;28;20023;-76
2022/06/16 09:54:03;;;;;;;6.53;2.47;;;;;;;26.69;38.37;101187.00;5112672;28;20024;-76
2022/06/16 09:56:53;;;;;;;8.95;2.47;;;;;;;26.76;38.44;101183.13;5112740;28;20034;-77
2022/06/16 09:59:25;;;;;;;12.90;2.50;;;;;;;26.88;37.21;101183.34;5112455;28;20022;-77
2022/06/16 10:01:58;;;;;;;3.80;2.05;;;;;;;27.02;36.34;101180.31;5112739;28;20039;-77
2022/06/16 10:04:24;;;;;;;10.23;2.28;;;;;;;27.03;38.35;101179.22;5112578;28;20474;-77
2022/06/16 10:07:10;;;;;;;7.05;2.10;;;;;;;27.14;36.32;101179.63;5112273;28;20027;-77
2022/06/16 10:09:57;;;;;;;11.18;2.35;;;;;;;27.24;36.82;101191.91;5112167;28;20030;-77
2022/06/16 10:12:56;;;;;;;17.42;2.40;;;;;;;27.34;36.67;101174.81;5112400;28;20023;-77
2022/06/16 10:15:34;;;;;;;9.88;1.95;;;;;;;27.27;36.27;101187.84;5060775;28;20089;-77
2022/06/16 10:18:00;;;;;;;3.88;2.22;;;;;;;27.28;35.60;101181.25;5112253;28;20016;-76
2022/06/16 10:20:26;;;;;;;9.73;1.80;;;;;;;27.34;34.85;101188.63;5112441;28;20050;-76
2022/06/16 10:23:04;;;;;;;4.25;1.70;;;;;;;27.37;35.83;101178.00;5111864;28;20030;-77
2022/06/16 10:25:36;;;;;;;15.10;1.20;;;;;;;27.45;34.17;101193.53;5112015;28;20042;-77
2022/06/16 10:28:28;;;;;;;6.00;1.83;;;;;;;27.48;36.27;101187.56;5112015;28;20456;-77
2022/06/16 10:30:55;;;;;;;8.90;2.00;;;;;;;27.62;37.02;101178.09;5116010;28;20098;-77
2022/06/16 10:33:36;;;;;;;5.72;1.83;;;;;;;27.74;35.46;101179.06;5116549;28;20049;-77
2022/06/16 10:36:21;;;;;;;8.68;1.83;;;;;;;27.68;33.53;101176.34;5115881;28;20044;-77
2022/06/16 10:39:07;;;;;;;8.40;1.90;;;;;;;27.54;34.12;101193.03;5116350;28;20576;-77
2022/06/16 10:41:39;;;;;;;6.72;1.95;;;;;;;27.59;34.24;101178.53;5115871;28;20043;-77
2022/06/16 10:44:11;;;;;;;9.30;1.77;;;;;;;27.47;31.61;101170.13;5116122;28;20111;-77
2022/06/16 10:46:45;;;;;;;11.88;1.83;;;;;;;27.58;35.17;101176.88;5115969;28;20027;-76
2022/06/16 10:49:25;;;;;;;8.73;2.47;;;;;;;27.46;34.22;101173.13;5116027;28;20475;-76
2022/06/16 10:52:02;;;;;;;5.90;2.45;;;;;;;27.63;33.25;101176.19;5097745;28;20070;-77
2022/06/16 10:54:34;;;;;;;4.05;2.00;;;;;;;27.67;33.23;101167.22;5097442;28;20409;-77
2022/06/16 10:57:23;;;;;;;4.97;1.73;;;;;;;27.61;32.72;101165.38;5115787;28;20132;-77
2022/06/16 10:59:56;;;;;;;6.38;2.17;;;;;;;27.54;35.39;101164.56;5115492;28;20397;-76
2022/06/16 11:02:25;;;;;;;5.53;1.60;;;;;;;27.54;34.66;101173.69;5115267;28;20120;-77
2022/06/16 11:04:57;;;;;;;4.63;1.58;;;;;;;27.44;33.43;101176.09;5115881;28;20114;-77
2022/06/16 11:07:23;;;;;;;7.60;1.60;;;;;;;27.52;34.01;101167.53;5115701;28;20031;-77
2022/06/16 11:09:49;;;;;;;6.22;1.80;;;;;;;27.68;33.43;101166.13;5115918;28;20252;-77
2022/06/16 11:12:22;;;;;;;6.78;2.10;;;;;;;27.75;32.40;101166.94;5115635;28;20539;-77
2022/06/16 11:15:01;;;;;;;9.57;1.73;;;;;;;27.67;33.81;101149.78;5115948;28;20435;-77
2022/06/16 11:17:46;;;;;;;3.53;1.65;;;;;;;27.70;32.61;101157.66;5115494;28;20570;-76
2022/06/16 11:20:11;;;;;;;14.27;4.68;;;;;;;27.75;32.83;101166.94;5115670;28;20031;-77
2022/06/16 11:22:41;;;;;;;17.33;2.55;;;;;;;27.79;32.99;101165.44;5115623;28;20031;-77
2022/06/16 11:25:15;;;;;;;14.18;1.83;;;;;;;27.97;32.91;101159.97;5097430;28;20035;-77
2022/06/16 11:27:58;;;;;;;5.60;1.50;;;;;;;27.92;32.53;101156.19;5116222;28;20020;-77
2022/06/16 11:30:29;;;;;;;25.73;2.53;;;;;;;28.04;33.44;101158.00;5115574;28;20020;-78
2022/06/16 11:32:54;;;;;;;3.50;1.23;;;;;;;27.95;33.77;101155.75;5115702;28;20122;-77
2022/06/16 11:35:28;;;;;;;11.30;1.95;;;;;;;27.48;33.47;101149.72;5115141;28;20461;-78
2022/06/16 11:38:22;;;;;;;7.20;1.67;;;;;;;27.34;32.83;101163.78;5115526;28;20044;-77
2022/06/16 11:40:57;;;;;;;8.15;1.77;;;;;;;27.23;32.17;101161.72;5114081;28;20016;-78
2022/06/16 11:43:54;;;;;;;3.70;1.50;;;;;;;27.23;32.49;101161.72;5097276;28;20024;-77
2022/06/16 11:46:38;;;;;;;3.63;1.35;;;;;;;27.02;32.70;101161.00;5114820;28;20039;-78
2022/06/16 11:49:13;;;;;;;13.02;2.03;;;;;;;27.28;33.09;101159.13;5115207;28;20095;-77
2022/06/16 11:52:00;;;;;;;10.20;2.17;;;;;;;27.42;33.01;101135.91;5114758;28;20024;-77
2022/06/16 11:54:44;;;;;;;7.82;2.15;;;;;;;27.66;33.51;101146.19;5114892;28;20016;-77
2022/06/16 11:57:21;;;;;;;7.03;1.50;;;;;;;27.64;32.31;101142.81;5114924;28;20081;-78
2022/06/16 12:00:05;;;;;;;8.77;3.28;;;;;;;27.60;34.32;101138.78;5115164;28;20031;-78